Terminal Aerodrome Forecast
Issued by NWS

Home | Current Version | Previous Version | Text Only | Print | Product List | Glossary On
Versions: 1 2 3 4 5 6 7 8 9 10 11 12 13 14 15 16
000
FTUS44 KJAN 241800 CCA
TAFHKS
TAF AMD
KHKS 241813Z 2418/2518 19012G18KT P6SM SCT040 BKN250
     FM250100 18011KT P6SM BKN050
     FM250400 19008KT P6SM VCSH OVC030
     FM251000 27005KT P6SM BKN040
     FM251300 31005KT P6SM BKN250=

USA.gov is the U.S. government's official web portal to all federal, state and local government web resources and services.